createdAt,value
2017-07-25T00:02:18.299Z,15.80
2017-07-25T00:04:45.951Z,15.70
2017-07-25T00:07:13.575Z,15.70
2017-07-25T00:09:41.959Z,15.60
2017-07-25T00:12:09.630Z,15.60
2017-07-25T00:14:37.269Z,15.60
2017-07-25T00:17:04.902Z,15.60
2017-07-25T00:19:32.568Z,15.60
2017-07-25T00:22:00.247Z,15.50
2017-07-25T00:24:27.877Z,15.50
2017-07-25T00:26:55.532Z,15.50
2017-07-25T00:29:23.160Z,15.50
2017-07-25T00:31:50.794Z,15.50
2017-07-25T00:34:18.464Z,15.40
2017-07-25T00:36:46.088Z,15.40
2017-07-25T00:39:13.716Z,15.40
2017-07-25T00:41:41.379Z,15.30
2017-07-25T00:44:09.023Z,15.30
2017-07-25T00:46:36.654Z,15.30
2017-07-25T00:49:04.319Z,15.30
2017-07-25T00:51:31.959Z,15.30
2017-07-25T00:53:59.593Z,15.20
2017-07-25T00:56:27.267Z,15.20
2017-07-25T00:58:54.897Z,15.20
2017-07-25T01:01:22.532Z,15.20
2017-07-25T01:03:50.196Z,15.20
2017-07-25T01:06:17.829Z,15.20
2017-07-25T01:08:45.456Z,15.20
2017-07-25T01:11:13.887Z,15.20
2017-07-25T01:13:41.530Z,15.10
2017-07-25T01:16:09.171Z,15.20
2017-07-25T01:18:36.829Z,15.10
2017-07-25T01:21:04.457Z,15.10
2017-07-25T01:23:32.087Z,15.00
2017-07-25T01:25:59.747Z,15.00
2017-07-25T01:28:27.376Z,15.00
2017-07-25T01:30:55.009Z,15.00
2017-07-25T01:33:22.674Z,15.00
2017-07-25T01:35:50.300Z,15.00
2017-07-25T01:38:17.931Z,15.00
2017-07-25T01:40:46.351Z,15.00
2017-07-25T01:43:13.971Z,14.90
2017-07-25T01:45:41.672Z,15.00
2017-07-25T01:48:09.328Z,15.00
2017-07-25T01:50:37.719Z,14.90
2017-07-25T01:53:05.344Z,14.80
2017-07-25T01:55:33.769Z,14.80
2017-07-25T01:58:01.402Z,14.80
2017-07-25T02:00:29.031Z,14.90
2017-07-25T02:02:56.691Z,14.90
2017-07-25T02:05:24.326Z,14.90
2017-07-25T02:07:51.965Z,14.80
2017-07-25T02:10:19.623Z,14.80
2017-07-25T02:12:47.248Z,14.80
2017-07-25T02:15:14.893Z,14.90
2017-07-25T02:17:42.562Z,14.80
2017-07-25T02:20:10.201Z,14.80
2017-07-25T02:22:37.834Z,14.80
2017-07-25T02:25:05.497Z,14.80
2017-07-25T02:27:33.131Z,14.80
2017-07-25T02:30:00.774Z,14.80
2017-07-25T02:32:28.441Z,14.80
2017-07-25T02:34:56.064Z,14.80
2017-07-25T02:37:23.696Z,14.80
2017-07-25T02:39:52.115Z,14.70
2017-07-25T02:42:19.755Z,14.70
2017-07-25T02:44:47.379Z,14.70
2017-07-25T02:47:15.048Z,14.70
2017-07-25T02:49:42.671Z,14.70
2017-07-25T02:52:10.296Z,14.70
2017-07-25T02:54:38.738Z,14.60
2017-07-25T02:57:06.379Z,14.60
2017-07-25T02:59:34.011Z,14.60
2017-07-25T03:02:01.682Z,14.60
2017-07-25T03:04:29.313Z,14.60
2017-07-25T03:06:56.966Z,14.70
2017-07-25T03:09:24.614Z,14.70
2017-07-25T03:11:52.255Z,14.60
2017-07-25T03:14:19.874Z,14.50
2017-07-25T03:16:47.544Z,14.50
2017-07-25T03:19:15.168Z,14.60
2017-07-25T03:21:42.791Z,14.60
2017-07-25T03:24:10.458Z,14.60
2017-07-25T03:26:38.111Z,14.70
2017-07-25T03:29:05.753Z,14.60
2017-07-25T03:31:33.417Z,14.60
2017-07-25T03:34:01.035Z,14.60
2017-07-25T03:36:28.664Z,14.60
2017-07-25T03:38:56.380Z,14.60
2017-07-25T03:41:24.039Z,14.70
2017-07-25T03:43:52.437Z,14.60
2017-07-25T03:46:20.100Z,14.60
2017-07-25T03:48:47.733Z,14.60
2017-07-25T03:51:15.373Z,14.60
2017-07-25T03:53:43.041Z,14.60
2017-07-25T03:56:10.668Z,14.50
2017-07-25T03:58:38.300Z,14.60
2017-07-25T04:01:05.966Z,14.60
2017-07-25T04:03:33.599Z,14.70
2017-07-25T04:06:01.229Z,14.60
2017-07-25T04:08:29.663Z,14.70
2017-07-25T04:10:57.290Z,14.70
2017-07-25T04:13:24.930Z,14.70
2017-07-25T04:15:52.598Z,14.70
2017-07-25T04:18:20.241Z,14.70
2017-07-25T04:20:47.872Z,14.60
2017-07-25T04:23:15.532Z,14.60
2017-07-25T04:25:43.165Z,14.60
2017-07-25T04:28:10.797Z,14.60
2017-07-25T04:30:38.464Z,14.60
2017-07-25T04:33:06.087Z,14.60
2017-07-25T04:35:33.707Z,14.70
2017-07-25T04:38:02.137Z,14.60
2017-07-25T04:40:29.769Z,14.60
2017-07-25T04:42:57.393Z,14.70
2017-07-25T04:45:25.067Z,14.70
2017-07-25T04:47:52.687Z,14.70
2017-07-25T04:50:20.311Z,14.70
2017-07-25T04:52:47.967Z,14.70
2017-07-25T04:55:15.604Z,14.70
2017-07-25T04:57:43.238Z,14.70
2017-07-25T05:00:11.654Z,14.70
2017-07-25T05:02:39.293Z,14.70
2017-07-25T05:05:06.915Z,14.70
2017-07-25T05:07:34.596Z,14.70
2017-07-25T05:10:02.215Z,14.60
2017-07-25T05:12:29.839Z,14.60
2017-07-25T05:14:58.265Z,14.70
2017-07-25T05:17:25.892Z,14.60
2017-07-25T05:19:53.527Z,14.70
2017-07-25T05:22:21.200Z,14.70
2017-07-25T05:24:48.837Z,14.70
2017-07-25T05:27:16.561Z,14.60
2017-07-25T05:29:44.232Z,14.60
2017-07-25T05:32:11.852Z,14.60
2017-07-25T05:34:39.482Z,14.60
2017-07-25T05:37:07.927Z,14.60
2017-07-25T05:39:35.558Z,14.50
2017-07-25T05:42:03.204Z,14.60
2017-07-25T05:44:30.865Z,14.60
2017-07-25T05:46:59.254Z,14.60
2017-07-25T05:49:26.910Z,14.50
2017-07-25T05:51:54.585Z,14.60
2017-07-25T05:54:22.224Z,14.50
2017-07-25T05:56:49.857Z,14.50
2017-07-25T05:59:17.521Z,14.60
2017-07-25T06:01:45.161Z,14.70
2017-07-25T06:04:12.796Z,14.60
2017-07-25T06:06:40.474Z,14.60
2017-07-25T06:09:08.103Z,14.60
2017-07-25T06:11:35.751Z,14.60
2017-07-25T06:14:03.425Z,14.60
2017-07-25T06:16:31.077Z,14.70
2017-07-25T06:18:58.731Z,14.70
2017-07-25T06:21:26.397Z,14.80
2017-07-25T06:23:54.819Z,14.80
2017-07-25T06:26:22.459Z,14.70
2017-07-25T06:28:50.129Z,14.70
2017-07-25T06:31:17.758Z,14.80
2017-07-25T06:33:45.408Z,15.00
2017-07-25T06:36:13.074Z,15.20
2017-07-25T06:38:40.723Z,15.30
2017-07-25T06:41:08.425Z,15.50
2017-07-25T06:43:36.097Z,15.50
2017-07-25T06:46:03.733Z,15.60
2017-07-25T06:48:31.374Z,15.60
2017-07-25T06:50:59.057Z,15.60
2017-07-25T06:53:26.710Z,15.70
2017-07-25T06:58:28.460Z,15.40
2017-07-25T07:00:56.856Z,15.50
2017-07-25T07:03:24.535Z,15.50
2017-07-25T07:05:52.209Z,15.60
2017-07-25T07:08:19.853Z,15.70
2017-07-25T07:10:47.493Z,15.60
2017-07-25T07:13:15.174Z,15.70
2017-07-25T07:15:42.811Z,15.70
2017-07-25T07:18:11.213Z,15.70
2017-07-25T07:20:38.884Z,15.70
2017-07-25T07:23:06.522Z,15.80
2017-07-25T07:25:34.165Z,15.80
2017-07-25T07:28:01.835Z,15.70
2017-07-25T07:30:29.478Z,15.70
2017-07-25T07:32:57.115Z,15.70
2017-07-25T07:35:24.769Z,15.80
2017-07-25T07:37:52.405Z,15.80
2017-07-25T07:40:20.046Z,15.70
2017-07-25T07:42:47.722Z,15.80
2017-07-25T07:45:15.357Z,15.90
2017-07-25T07:47:42.980Z,15.90
2017-07-25T07:50:10.666Z,16.00
2017-07-25T07:52:38.301Z,16.00
2017-07-25T07:55:05.936Z,16.10
2017-07-25T07:57:33.602Z,16.20
2017-07-25T08:00:01.255Z,16.30
2017-07-25T08:02:29.667Z,16.50
2017-07-25T08:04:57.337Z,16.40
2017-07-25T08:07:25.001Z,16.50
2017-07-25T08:09:52.634Z,16.60
2017-07-25T08:12:20.297Z,16.70
2017-07-25T08:14:48.717Z,16.70
2017-07-25T08:17:16.378Z,16.70
2017-07-25T08:19:44.064Z,16.70
2017-07-25T08:22:11.705Z,16.80
2017-07-25T08:24:39.395Z,16.80
2017-07-25T08:27:07.061Z,16.90
2017-07-25T08:29:34.683Z,16.80
2017-07-25T08:32:02.317Z,16.90
2017-07-25T08:34:29.984Z,16.90
2017-07-25T08:36:57.640Z,16.90
2017-07-25T08:39:25.274Z,17.00
2017-07-25T08:41:52.957Z,17.00
2017-07-25T08:44:20.595Z,17.10
2017-07-25T08:46:48.226Z,17.10
2017-07-25T08:49:15.909Z,17.10
2017-07-25T08:51:43.560Z,17.10
2017-07-25T08:54:11.206Z,17.00
2017-07-25T08:56:38.863Z,17.00
2017-07-25T08:59:07.268Z,17.10
2017-07-25T09:01:34.903Z,17.10
2017-07-25T09:04:02.759Z,17.30
2017-07-25T09:06:30.388Z,17.80
2017-07-25T09:08:58.024Z,17.90
2017-07-25T09:11:25.705Z,18.00
2017-07-25T09:13:53.339Z,18.10
2017-07-25T09:16:20.982Z,17.90
2017-07-25T09:18:49.410Z,17.70
2017-07-25T09:21:17.062Z,17.60
2017-07-25T09:23:52.719Z,17.70
2017-07-25T09:26:20.361Z,17.60
2017-07-25T09:28:48.762Z,17.50
2017-07-25T09:31:16.435Z,17.40
2017-07-25T09:33:44.075Z,17.50
2017-07-25T09:36:11.723Z,17.50
2017-07-25T09:38:39.394Z,17.40
2017-07-25T09:41:07.026Z,17.30
2017-07-25T09:43:34.657Z,17.30
2017-07-25T09:46:02.345Z,17.20
2017-07-25T09:48:30.742Z,17.20
2017-07-25T09:50:58.378Z,17.20
2017-07-25T09:53:26.060Z,17.10
2017-07-25T09:55:53.696Z,17.20
2017-07-25T09:58:21.323Z,17.20
2017-07-25T10:00:49.004Z,17.30
2017-07-25T10:03:16.635Z,17.30
2017-07-25T10:05:44.267Z,17.30
2017-07-25T10:08:11.942Z,17.30
2017-07-25T10:10:39.568Z,17.20
2017-07-25T10:13:07.437Z,17.10
2017-07-25T10:15:35.121Z,17.10
2017-07-25T10:18:02.766Z,17.10
2017-07-25T10:20:30.387Z,17.10
2017-07-25T10:22:58.052Z,17.10
2017-07-25T10:25:25.693Z,17.20
2017-07-25T10:27:53.327Z,17.30
2017-07-25T10:30:21.009Z,17.40
2017-07-25T10:32:49.421Z,17.60
2017-07-25T10:35:17.049Z,17.60
2017-07-25T10:37:44.728Z,17.70
2017-07-25T10:40:12.348Z,17.90
2017-07-25T10:42:40.726Z,19.60
2017-07-25T10:45:08.633Z,19.50
2017-07-25T10:47:36.269Z,20.40
2017-07-25T10:50:03.893Z,20.40
2017-07-25T10:52:31.550Z,20.00
2017-07-25T10:54:59.169Z,19.70
2017-07-25T10:57:26.789Z,19.30
2017-07-25T10:59:55.201Z,19.10
2017-07-25T11:02:22.810Z,19.00
2017-07-25T11:04:50.416Z,19.40
2017-07-25T11:07:18.066Z,19.50
2017-07-25T11:09:45.703Z,19.30
2017-07-25T11:12:13.323Z,19.30
2017-07-25T11:14:40.970Z,19.90
2017-07-25T11:17:08.584Z,20.80
2017-07-25T11:19:36.200Z,21.30
2017-07-25T11:22:03.840Z,21.30
2017-07-25T11:24:31.461Z,21.70
2017-07-25T11:26:59.079Z,22.20
2017-07-25T11:29:26.733Z,22.50
2017-07-25T11:31:54.358Z,23.20
2017-07-25T11:34:21.969Z,24.00
2017-07-25T11:36:49.616Z,24.40
2017-07-25T11:39:17.231Z,24.30
2017-07-25T11:41:44.845Z,23.50
2017-07-25T11:44:13.795Z,22.60
2017-07-25T11:46:41.413Z,22.50
2017-07-25T11:49:09.034Z,22.10
2017-07-25T11:51:36.680Z,21.70
2017-07-25T11:54:04.297Z,21.50
2017-07-25T11:56:32.675Z,21.20
2017-07-25T11:59:00.340Z,21.20
2017-07-25T12:01:27.939Z,21.10
2017-07-25T12:03:55.555Z,21.10
2017-07-25T12:06:23.201Z,20.90
2017-07-25T12:08:50.809Z,20.70
2017-07-25T12:11:18.413Z,20.50
2017-07-25T12:13:46.052Z,20.20
2017-07-25T12:16:13.667Z,20.10
2017-07-25T12:18:41.280Z,19.90
2017-07-25T12:21:21.605Z,19.90
2017-07-25T12:23:49.988Z,19.80
2017-07-25T12:26:17.609Z,19.70
2017-07-25T12:28:45.246Z,19.70
2017-07-25T12:31:12.861Z,19.70
2017-07-25T12:33:40.475Z,19.60
2017-07-25T12:36:14.575Z,19.80
2017-07-25T12:38:42.191Z,19.70
2017-07-25T12:41:09.817Z,19.90
2017-07-25T12:43:37.462Z,19.90
2017-07-25T12:46:05.106Z,20.00
2017-07-25T12:48:32.719Z,20.00
2017-07-25T12:51:00.371Z,19.90
2017-07-25T12:53:27.978Z,19.90
2017-07-25T12:55:56.355Z,19.60
2017-07-25T12:58:24.798Z,19.60
2017-07-25T13:01:04.405Z,19.60
2017-07-25T13:03:32.065Z,19.60
2017-07-25T13:05:59.676Z,19.60
2017-07-25T13:08:27.280Z,19.50
2017-07-25T13:10:55.696Z,19.40
2017-07-25T13:13:23.326Z,19.30
2017-07-25T13:15:50.968Z,19.20
2017-07-25T13:18:18.623Z,19.20
2017-07-25T13:20:46.266Z,19.20
2017-07-25T13:23:13.891Z,19.20
2017-07-25T13:25:41.531Z,19.20
2017-07-25T13:28:09.165Z,19.20
2017-07-25T13:30:36.805Z,19.20
2017-07-25T13:33:04.482Z,19.00
2017-07-25T13:35:32.131Z,19.00
2017-07-25T13:37:59.778Z,19.00
2017-07-25T13:40:27.444Z,19.00
2017-07-25T13:42:55.057Z,19.00
2017-07-25T13:45:22.695Z,19.20
2017-07-25T13:47:50.339Z,19.30
2017-07-25T13:50:18.707Z,19.40
2017-07-25T13:52:46.321Z,19.30
2017-07-25T13:55:13.956Z,19.40
2017-07-25T13:57:41.583Z,19.40
2017-07-25T14:00:09.199Z,19.50
2017-07-25T14:02:37.603Z,19.70
2017-07-25T14:05:05.205Z,19.70
2017-07-25T14:07:32.811Z,19.80
2017-07-25T14:10:00.477Z,19.90
2017-07-25T14:12:28.080Z,20.10
2017-07-25T14:14:55.684Z,20.10
2017-07-25T14:17:24.090Z,20.30
2017-07-25T14:19:51.697Z,20.30
2017-07-25T14:22:19.316Z,20.40
2017-07-25T14:24:46.973Z,20.50
2017-07-25T14:27:15.360Z,20.80
2017-07-25T14:29:42.982Z,20.70
2017-07-25T14:32:10.650Z,21.00
2017-07-25T14:34:38.260Z,21.10
2017-07-25T14:37:05.880Z,21.20
2017-07-25T14:39:33.578Z,21.20
2017-07-25T14:42:01.952Z,21.10
2017-07-25T14:44:29.563Z,21.00
2017-07-25T14:46:57.213Z,20.90
2017-07-25T14:49:24.828Z,21.00
2017-07-25T14:51:52.440Z,21.00
2017-07-25T14:54:20.086Z,21.10
2017-07-25T14:56:47.696Z,21.00
2017-07-25T14:59:15.310Z,20.90
2017-07-25T15:01:42.960Z,20.70
2017-07-25T15:04:10.581Z,20.70
2017-07-25T15:06:38.182Z,20.60
2017-07-25T15:09:05.820Z,20.50
2017-07-25T15:11:33.432Z,20.40
2017-07-25T15:14:01.045Z,20.30
2017-07-25T15:16:28.697Z,20.20
2017-07-25T15:18:56.313Z,20.00
2017-07-25T15:21:23.944Z,19.90
2017-07-25T15:23:51.601Z,19.80
2017-07-25T15:26:19.236Z,19.60
2017-07-25T15:28:46.839Z,19.50
2017-07-25T15:31:14.536Z,19.40
2017-07-25T15:33:42.938Z,19.20
2017-07-25T15:36:10.566Z,19.20
2017-07-25T15:38:38.229Z,19.20
2017-07-25T15:41:05.879Z,19.10
2017-07-25T15:43:33.489Z,19.10
2017-07-25T15:46:01.163Z,19.10
2017-07-25T15:48:28.787Z,19.10
2017-07-25T15:50:57.183Z,19.10
2017-07-25T15:53:24.831Z,19.00
2017-07-25T15:55:52.471Z,19.10
2017-07-25T15:58:20.110Z,19.10
2017-07-25T16:00:47.775Z,19.00
2017-07-25T16:03:15.418Z,19.00
2017-07-25T16:05:43.083Z,19.00
2017-07-25T16:08:10.762Z,19.00
2017-07-25T16:10:38.388Z,19.10
2017-07-25T16:13:06.037Z,19.10
2017-07-25T16:15:33.697Z,19.10
2017-07-25T16:18:01.342Z,19.00
2017-07-25T16:20:28.977Z,19.10
2017-07-25T16:22:56.631Z,19.10
2017-07-25T16:25:24.247Z,19.10
2017-07-25T16:27:51.854Z,19.10
2017-07-25T16:30:19.514Z,19.10
2017-07-25T16:32:47.893Z,19.00
2017-07-25T16:35:15.537Z,19.00
2017-07-25T16:37:43.168Z,19.10
2017-07-25T16:40:10.809Z,19.00
2017-07-25T16:42:38.448Z,19.00
2017-07-25T16:45:06.109Z,19.10
2017-07-25T16:47:33.748Z,19.10
2017-07-25T16:50:01.380Z,19.00
2017-07-25T16:52:29.026Z,19.00
2017-07-25T16:54:57.445Z,18.90
2017-07-25T16:57:25.076Z,18.80
2017-07-25T16:59:52.754Z,18.90
2017-07-25T17:02:20.388Z,18.90
2017-07-25T17:04:48.017Z,18.80
2017-07-25T17:07:15.685Z,18.80
2017-07-25T17:09:43.365Z,18.70
2017-07-25T17:12:10.985Z,18.80
2017-07-25T17:14:38.648Z,18.70
2017-07-25T17:17:06.268Z,18.70
2017-07-25T17:19:33.905Z,18.70
2017-07-25T17:22:01.581Z,18.60
2017-07-25T17:24:29.233Z,18.60
2017-07-25T17:26:57.546Z,18.50
2017-07-25T17:29:25.205Z,18.40
2017-07-25T17:31:52.836Z,18.30
2017-07-25T17:34:20.469Z,18.10
2017-07-25T17:36:48.161Z,18.10
2017-07-25T17:39:15.784Z,18.00
2017-07-25T17:41:43.433Z,18.00
2017-07-25T17:44:11.121Z,18.00
2017-07-25T17:46:38.766Z,17.90
2017-07-25T17:49:06.403Z,17.90
2017-07-25T17:51:34.066Z,17.80
2017-07-25T17:54:02.464Z,17.80
2017-07-25T17:56:30.105Z,17.80
2017-07-25T17:58:57.782Z,17.70
2017-07-25T18:01:25.400Z,17.70
2017-07-25T18:03:53.049Z,17.70
2017-07-25T18:06:21.125Z,17.60
2017-07-25T18:08:48.817Z,17.60
2017-07-25T18:11:16.536Z,17.60
2017-07-25T18:13:44.269Z,17.50
2017-07-25T18:16:12.020Z,17.60
2017-07-25T18:18:39.724Z,17.60
2017-07-25T18:21:07.605Z,17.60
2017-07-25T18:23:35.243Z,17.50
2017-07-25T18:26:02.880Z,17.50
2017-07-25T18:28:30.638Z,17.50
2017-07-25T18:30:58.275Z,17.40
2017-07-25T18:33:26.677Z,17.40
2017-07-25T18:35:54.344Z,17.40
2017-07-25T18:38:21.968Z,17.40
2017-07-25T18:40:49.596Z,17.30
2017-07-25T18:43:17.254Z,17.30
2017-07-25T18:45:44.952Z,17.30
2017-07-25T18:48:12.580Z,17.30
2017-07-25T18:50:40.253Z,17.20
2017-07-25T18:53:07.876Z,17.30
2017-07-25T18:55:35.521Z,17.20
2017-07-25T18:58:03.191Z,17.20
2017-07-25T19:00:30.965Z,17.20
2017-07-25T19:02:58.612Z,17.20
2017-07-25T19:05:26.275Z,17.20
2017-07-25T19:07:53.932Z,17.10
2017-07-25T19:10:21.582Z,17.00
2017-07-25T19:12:49.257Z,17.00
2017-07-25T19:15:16.892Z,17.00
2017-07-25T19:17:44.531Z,16.90
2017-07-25T19:20:12.187Z,16.90
2017-07-25T19:22:39.815Z,16.90
2017-07-25T19:25:07.481Z,16.80
2017-07-25T19:27:35.163Z,16.80
2017-07-25T19:30:03.557Z,16.60
2017-07-25T19:32:31.179Z,16.50
2017-07-25T19:34:59.603Z,16.50
2017-07-25T19:37:27.467Z,16.50
2017-07-25T19:39:55.163Z,16.40
2017-07-25T19:42:22.837Z,16.30
2017-07-25T19:44:50.457Z,16.20
2017-07-25T19:47:18.088Z,16.10
2017-07-25T19:49:46.523Z,16.00
2017-07-25T19:52:14.176Z,16.00
2017-07-25T19:54:41.814Z,16.10
2017-07-25T19:57:09.484Z,16.10
2017-07-25T19:59:37.885Z,16.00
2017-07-25T20:02:05.509Z,15.90
2017-07-25T20:04:33.188Z,16.00
2017-07-25T20:07:00.833Z,15.90
2017-07-25T20:09:28.455Z,15.90
2017-07-25T20:11:56.321Z,15.90
2017-07-25T20:14:23.964Z,15.90
2017-07-25T20:16:51.609Z,15.90
2017-07-25T20:19:19.286Z,15.90
2017-07-25T20:21:46.908Z,15.70
2017-07-25T20:24:14.536Z,15.80
2017-07-25T20:26:42.204Z,15.80
2017-07-25T20:29:09.841Z,15.80
2017-07-25T20:31:37.546Z,15.90
2017-07-25T20:34:05.980Z,15.90
2017-07-25T20:36:33.607Z,15.90
2017-07-25T20:39:01.246Z,15.90
2017-07-25T20:41:28.943Z,16.00
2017-07-25T20:43:56.587Z,16.00
2017-07-25T20:46:24.218Z,16.00
2017-07-25T20:48:51.895Z,16.00
2017-07-25T20:51:19.521Z,16.00
2017-07-25T20:53:47.156Z,16.10
2017-07-25T20:56:14.841Z,16.10
2017-07-25T20:58:43.261Z,16.10
2017-07-25T21:01:10.956Z,16.00
2017-07-25T21:03:39.383Z,16.10
2017-07-25T21:06:07.007Z,16.10
2017-07-25T21:08:34.631Z,16.10
2017-07-25T21:11:02.287Z,16.10
2017-07-25T21:13:29.917Z,16.10
2017-07-25T21:15:57.556Z,16.10
2017-07-25T21:18:25.212Z,16.10
2017-07-25T21:20:52.941Z,16.10
2017-07-25T21:23:20.580Z,16.10
2017-07-25T21:25:48.257Z,16.00
2017-07-25T21:28:16.656Z,16.00
2017-07-25T21:30:44.321Z,15.90
2017-07-25T21:33:11.987Z,16.00
2017-07-25T21:35:39.616Z,16.00
2017-07-25T21:38:07.254Z,16.10
2017-07-25T21:40:34.925Z,16.00
2017-07-25T21:43:02.551Z,16.10
2017-07-25T21:45:30.185Z,16.10
2017-07-25T21:47:57.853Z,16.10
2017-07-25T21:50:25.536Z,16.00
2017-07-25T21:52:54.123Z,16.10
2017-07-25T21:55:23.268Z,16.00
2017-07-25T21:57:50.905Z,16.10
2017-07-25T22:00:18.537Z,16.00
2017-07-25T22:02:58.013Z,15.90
2017-07-25T22:05:26.455Z,15.90
2017-07-25T22:07:54.089Z,16.00
2017-07-25T22:10:21.748Z,16.00
2017-07-25T22:12:50.144Z,15.90
2017-07-25T22:15:17.777Z,15.90
2017-07-25T22:17:45.446Z,15.90
2017-07-25T22:20:13.870Z,15.90
2017-07-25T22:22:41.617Z,15.90
2017-07-25T22:25:10.050Z,15.90
2017-07-25T22:27:37.686Z,15.80
2017-07-25T22:30:05.319Z,15.90
2017-07-25T22:32:32.990Z,15.90
2017-07-25T22:35:00.641Z,15.90
2017-07-25T22:37:28.272Z,15.90
2017-07-25T22:39:55.933Z,15.80
2017-07-25T22:42:23.563Z,15.80
2017-07-25T22:44:51.193Z,15.90
2017-07-25T22:47:18.848Z,15.90
2017-07-25T22:49:46.546Z,15.80
2017-07-25T22:52:14.167Z,15.80
2017-07-25T22:54:41.834Z,15.90
2017-07-25T22:57:10.236Z,15.90
2017-07-25T22:59:37.865Z,15.90
2017-07-25T23:02:06.279Z,15.90
2017-07-25T23:04:33.916Z,15.80
2017-07-25T23:07:01.553Z,15.90
2017-07-25T23:09:29.221Z,15.80
2017-07-25T23:11:56.843Z,15.80
2017-07-25T23:14:24.476Z,15.80
2017-07-25T23:16:52.135Z,15.70
2017-07-25T23:19:19.782Z,15.70
2017-07-25T23:21:47.414Z,15.80
2017-07-25T23:24:15.073Z,15.80
2017-07-25T23:26:42.708Z,15.80
2017-07-25T23:29:10.338Z,15.80
2017-07-25T23:31:38.777Z,15.60
2017-07-25T23:34:06.400Z,15.50
2017-07-25T23:36:34.023Z,15.60
2017-07-25T23:39:01.685Z,15.50
2017-07-25T23:41:29.330Z,15.50
2017-07-25T23:43:56.965Z,15.40
2017-07-25T23:46:24.712Z,15.40
2017-07-25T23:48:52.344Z,15.40
2017-07-25T23:51:19.977Z,15.40
2017-07-25T23:53:48.413Z,15.50
2017-07-25T23:56:16.031Z,15.40
2017-07-25T23:58:43.666Z,15.50
